EDT,Max TemperatureF,Mean TemperatureF,Min TemperatureF,Max Dew PointF,MeanDew PointF,Min DewpointF,Max Humidity, Mean Humidity, Min Humidity, Max Sea Level PressureIn, Mean Sea Level PressureIn, Min Sea Level PressureIn, Max VisibilityMiles, Mean VisibilityMiles, Min VisibilityMiles, Max Wind SpeedMPH, Mean Wind SpeedMPH, Max Gust SpeedMPH,PrecipitationIn, CloudCover, Events, WindDirDegrees
2013-4-1,71,60,46,59,53,45,94,79,41,29.93,29.87,29.83,10,10,9,14,7,16,0.00,3,,243
2013-4-2,62,52,41,45,32,25,93,50,29,30.16,30.09,29.93,10,10,10,14,5,21,0.00,1,,328
2013-4-3,57,49,41,41,33,21,87,59,26,30.31,30.22,30.13,10,10,10,12,3,,0.00,4,,14
2013-4-4,51,46,41,48,39,30,100,79,58,30.33,30.17,29.80,10,9,3,21,9,28,0.32,5,,49
2013-4-5,57,49,41,48,44,39,100,85,63,30.03,29.91,29.78,10,8,2,10,5,16,0.18,5,,332
2013-4-6,64,50,35,43,35,30,100,64,30,30.31,30.19,30.04,10,10,5,20,5,25,0.00,0,,62
2013-4-7,62,48,35,50,41,32,93,83,63,30.31,30.23,30.16,10,10,5,15,4,22,0.00,1,,170
2013-4-8,80,63,46,59,54,45,93,66,39,30.22,30.17,30.11,10,9,0,16,5,22,0.00,1,,205
2013-4-9,84,68,53,64,58,52,94,71,42,30.23,30.17,30.11,10,9,0,14,7,18,0.00,1,,212
2013-4-10,87,71,55,63,58,54,100,71,40,30.16,30.09,30.02,10,8,0,17,8,25,0.00,0,,217
2013-4-11,84,70,57,66,62,55,100,76,48,30.05,29.97,29.89,10,9,0,17,9,25,0.00,2,,202
2013-4-12,84,75,66,70,66,63,94,85,62,29.90,29.79,29.67,10,10,4,23,13,30,0.12,4,Thunderstorm,190
2013-4-13,71,61,51,64,53,43,100,74,48,30.04,29.90,29.77,10,9,3,13,5,18,0.00,1,,315
2013-4-14,80,61,42,55,46,39,100,63,26,30.13,30.09,30.04,10,8,0,13,2,,0.00,1,,153
2013-4-15,69,64,59,61,57,55,94,77,64,30.21,30.10,30.02,10,10,7,15,6,25,0.00,6,,91
2013-4-16,75,65,55,63,58,54,100,87,65,30.29,30.24,30.20,10,6,0,8,4,,0.00,5,,38
2013-4-17,84,72,57,61,58,55,94,64,45,30.21,30.17,30.14,10,10,7,12,5,,0.00,0,,168
2013-4-18,80,66,53,64,58,52,94,76,48,30.22,30.17,30.10,10,10,2,14,4,20,0.00,3,,144
2013-4-19,78,71,64,72,67,63,100,88,69,30.10,29.96,29.88,10,10,5,23,11,34,0.70,5,Thunderstorm,181
2013-4-20,66,56,44,64,47,37,94,73,48,30.27,30.09,29.88,10,10,7,13,7,25,0.14,3,,304
2013-4-21,64,52,39,46,39,36,93,66,40,30.47,30.39,30.27,10,10,7,23,7,29,0.00,0,,41
2013-4-22,60,50,41,48,43,36,94,76,59,30.45,30.30,30.21,10,10,7,18,12,26,0.00,6,,13
2013-4-23,64,56,48,52,48,46,94,79,56,30.22,30.17,30.14,10,9,3,13,9,21,0.00,5,,6
2013-4-24,77,60,44,59,53,43,100,74,47,30.20,30.13,30.05,10,8,0,16,5,26,0.00,1,,196
2013-4-25,73,60,48,59,54,46,93,74,50,30.30,30.18,30.07,10,10,10,13,8,17,0.00,3,,57
2013-4-26,73,57,41,46,41,36,93,59,25,30.42,30.36,30.28,10,10,10,14,4,21,0.00,0,,52
2013-4-27,73,62,50,52,44,37,88,56,27,30.39,30.34,30.29,10,10,10,13,5,20,0.00,1,,83
2013-4-28,73,62,51,54,45,41,76,54,33,30.31,30.22,30.13,10,10,10,12,6,17,0.00,3,,110
2013-4-29,69,64,60,64,59,54,100,85,68,30.13,30.05,29.99,10,9,4,14,7,21,0.95,5,,162
2013-4-30,73,66,59,64,60,55,100,82,64,30.14,30.06,30.01,10,8,0,13,4,16,0.00,6,,8